Terminal Aerodrome Forecast
Issued by NWS North Platte, NE

Home | Current Version | Previous Version | Graphics & Text | Print | Product List | Glossary On
Versions: 1 2 3 4 5 6 7 8 9 10 11 12 13 14 15 16 17
011
FTUS43 KLBF 200111 AAA
TAFVTN
TAF AMD
KVTN 200111Z 2001/2024 09014KT P6SM FEW110 SCT250
     FM200300 33008KT P6SM BKN200
     FM200600 34008KT P6SM BKN200
     FM201000 01008KT P6SM BKN150
     FM201300 04008KT P6SM BKN150
     FM201500 07008KT P6SM BKN120=

USA.gov is the U.S. government's official web portal to all federal, state and local government web resources and services.